Kings Worthy, United Kingdom
Current Conditions -  °F | °C
As of 7:50 AM on Friday 24 Oct 2014 (Local Time) from EGVP Reporting Station
Broken Clouds Broken Clouds  
Wind Chill: 57°   Ceiling: 500
Heat Index: 57°   Visibility: 6mi
Dew Point: 55°   Wind: 6mph
Humidity: 94%   Direction: 220°SW
Pressure: 29.97"   Gusts: NA
Location:  51.09°N, 1.3°W
Report Text: EGVP 240650Z 22005KT 9999 BKN005 14/13 Q1015 YLO1 TEMPO FEW005 BLU
Loading
Personal Weather Stations






























Interactive Weather Map
Tropical Storm Tracking
New forecast layout! Learn more

10-Day Weather Forecast

Advertisements
Track Severe Weather on mobile